createdAt,value
2018-03-21T00:01:11.834Z,0.10
2018-03-21T00:03:39.546Z,0.10
2018-03-21T00:06:06.998Z,0.10
2018-03-21T00:08:34.466Z,0.10
2018-03-21T00:11:02.227Z,0.10
2018-03-21T00:13:29.679Z,0.10
2018-03-21T00:15:57.149Z,0.10
2018-03-21T00:18:24.604Z,0.10
2018-03-21T00:20:52.074Z,0.10
2018-03-21T00:23:19.535Z,0.20
2018-03-21T00:25:47.002Z,0.20
2018-03-21T00:28:14.467Z,0.20
2018-03-21T00:30:42.194Z,0.30
2018-03-21T00:33:09.650Z,0.40
2018-03-21T00:35:37.114Z,0.30
2018-03-21T00:38:04.792Z,0.40
2018-03-21T00:40:32.258Z,0.30
2018-03-21T00:42:59.987Z,0.20
2018-03-21T00:45:27.486Z,0.30
2018-03-21T00:47:54.951Z,0.30
2018-03-21T00:50:22.405Z,0.30
2018-03-21T00:52:49.870Z,0.40
2018-03-21T00:55:17.339Z,0.30
2018-03-21T00:57:44.850Z,0.30
2018-03-21T01:00:12.493Z,0.40
2018-03-21T01:02:39.959Z,0.40
2018-03-21T01:05:07.426Z,0.30
2018-03-21T01:07:35.173Z,0.30
2018-03-21T01:10:02.648Z,0.40
2018-03-21T01:12:30.103Z,0.30
2018-03-21T01:14:57.576Z,0.30
2018-03-21T01:17:25.041Z,0.30
2018-03-21T01:19:52.502Z,0.30
2018-03-21T01:22:19.970Z,0.30
2018-03-21T01:24:48.222Z,0.20
2018-03-21T01:27:15.693Z,0.20
2018-03-21T01:29:43.151Z,0.30
2018-03-21T01:32:10.618Z,0.30
2018-03-21T01:34:38.076Z,0.20
2018-03-21T01:37:05.548Z,0.10
2018-03-21T01:39:33.791Z,0.10
2018-03-21T01:42:01.518Z,0.10
2018-03-21T01:44:28.982Z,0.10
2018-03-21T01:46:56.450Z,0.10
2018-03-21T01:49:23.907Z,0.00
2018-03-21T01:51:51.374Z,0.00
2018-03-21T01:54:18.848Z,0.00
2018-03-21T01:56:46.308Z,0.00
2018-03-21T01:59:13.774Z,0.00
2018-03-21T02:01:42.009Z,0.00
2018-03-21T02:04:09.482Z,0.00
2018-03-21T02:06:37.723Z,0.00
2018-03-21T02:09:05.186Z,0.00
2018-03-21T02:11:32.647Z,0.00
2018-03-21T02:14:00.129Z,0.00
2018-03-21T02:16:27.604Z,-0.10
2018-03-21T02:18:56.139Z,-0.10
2018-03-21T02:21:23.610Z,-0.10
2018-03-21T02:23:51.365Z,-0.30
2018-03-21T02:26:18.838Z,-0.40
2018-03-21T02:28:46.314Z,-0.30
2018-03-21T02:31:13.782Z,-0.20
2018-03-21T02:33:41.244Z,-0.20
2018-03-21T02:36:08.943Z,-0.30
2018-03-21T02:38:36.418Z,-0.20
2018-03-21T02:41:03.877Z,-0.20
2018-03-21T02:43:31.355Z,-0.30
2018-03-21T02:45:58.810Z,-0.40
2018-03-21T02:48:26.277Z,-0.40
2018-03-21T02:50:53.758Z,-0.50
2018-03-21T02:53:21.231Z,-0.40
2018-03-21T02:55:49.020Z,-0.40
2018-03-21T02:58:16.515Z,-0.30
2018-03-21T03:00:43.978Z,-0.40
2018-03-21T03:03:11.442Z,-0.40
2018-03-21T03:05:38.907Z,-0.40
2018-03-21T03:08:07.176Z,-0.40
2018-03-21T03:10:34.853Z,-0.40
2018-03-21T03:13:03.090Z,-0.40
2018-03-21T03:15:30.556Z,-0.40
2018-03-21T03:17:58.022Z,-0.50
2018-03-21T03:20:25.739Z,-0.40
2018-03-21T03:22:53.207Z,-0.50
2018-03-21T03:25:20.682Z,-0.50
2018-03-21T03:27:48.147Z,-0.60
2018-03-21T03:30:15.624Z,-0.60
2018-03-21T03:32:43.080Z,-0.60
2018-03-21T03:35:10.586Z,-0.60
2018-03-21T03:37:38.046Z,-0.70
2018-03-21T03:40:05.518Z,-0.60
2018-03-21T03:42:32.994Z,-0.50
2018-03-21T03:45:00.708Z,-0.60
2018-03-21T03:47:28.188Z,-0.60
2018-03-21T03:49:55.655Z,-0.60
2018-03-21T03:52:23.130Z,-0.40
2018-03-21T03:54:50.598Z,-0.40
2018-03-21T03:57:18.071Z,-0.40
2018-03-21T03:59:46.310Z,-0.50
2018-03-21T04:02:13.779Z,-0.50
2018-03-21T04:04:41.504Z,-0.40
2018-03-21T04:07:09.267Z,-0.50
2018-03-21T04:09:36.759Z,-0.40
2018-03-21T04:12:04.242Z,-0.30
2018-03-21T04:14:32.489Z,-0.30
2018-03-21T04:17:00.218Z,-0.30
2018-03-21T04:19:27.682Z,-0.30
2018-03-21T04:21:55.149Z,-0.30
2018-03-21T04:24:22.614Z,-0.50
2018-03-21T04:26:50.086Z,-0.50
2018-03-21T04:29:17.542Z,-0.50
2018-03-21T04:31:45.026Z,-0.60
2018-03-21T04:34:13.267Z,-0.60
2018-03-21T04:36:40.744Z,-0.60
2018-03-21T04:39:08.217Z,-0.60
2018-03-21T04:41:36.446Z,-0.60
2018-03-21T04:44:04.678Z,-0.60
2018-03-21T04:46:33.184Z,-0.60
2018-03-21T04:49:00.656Z,-0.60
2018-03-21T04:51:28.131Z,-0.70
2018-03-21T04:53:55.595Z,-0.60
2018-03-21T04:56:23.058Z,-0.70
2018-03-21T04:58:50.528Z,-0.70
2018-03-21T05:01:18.776Z,-0.70
2018-03-21T05:03:46.242Z,-0.70
2018-03-21T05:06:13.712Z,-0.70
2018-03-21T05:08:41.174Z,-0.60
2018-03-21T05:11:08.673Z,-0.60
2018-03-21T05:13:36.134Z,-0.70
2018-03-21T05:16:03.614Z,-0.70
2018-03-21T05:18:32.067Z,-0.80
2018-03-21T05:20:59.528Z,-0.80
2018-03-21T05:23:27.003Z,-0.80
2018-03-21T05:25:54.474Z,-0.80
2018-03-21T05:28:22.001Z,-0.80
2018-03-21T05:30:49.475Z,-0.90
2018-03-21T05:33:17.225Z,-0.80
2018-03-21T05:35:44.696Z,-0.90
2018-03-21T05:38:12.158Z,-0.90
2018-03-21T05:40:39.763Z,-0.90
2018-03-21T05:43:07.233Z,-0.90
2018-03-21T05:45:35.470Z,-1.00
2018-03-21T05:48:02.974Z,-1.00
2018-03-21T05:50:30.415Z,-1.10
2018-03-21T05:52:58.685Z,-1.00
2018-03-21T05:55:26.909Z,-1.00
2018-03-21T05:57:54.598Z,-1.00
2018-03-21T06:00:22.058Z,-1.00
2018-03-21T06:02:49.530Z,-1.00
2018-03-21T06:05:16.993Z,-0.90
2018-03-21T06:07:44.458Z,-0.90
2018-03-21T06:10:11.929Z,-0.90
2018-03-21T06:12:39.386Z,-1.00
2018-03-21T06:15:06.858Z,-1.00
2018-03-21T06:17:34.352Z,-0.90
2018-03-21T06:20:02.042Z,-0.80
2018-03-21T06:22:29.750Z,-0.80
2018-03-21T06:24:57.234Z,-0.80
2018-03-21T06:27:24.707Z,-0.80
2018-03-21T06:29:52.183Z,-0.80
2018-03-21T06:32:20.421Z,-0.70
2018-03-21T06:34:47.899Z,-0.80
2018-03-21T06:37:15.357Z,-0.70
2018-03-21T06:39:42.826Z,-0.80
2018-03-21T06:42:11.054Z,-0.80
2018-03-21T06:44:38.524Z,-0.80
2018-03-21T06:47:05.998Z,-0.60
2018-03-21T06:49:33.671Z,-0.70
2018-03-21T06:52:01.139Z,-0.70
2018-03-21T06:54:28.594Z,-0.90
2018-03-21T06:56:56.826Z,-0.80
2018-03-21T06:59:24.287Z,-0.80
2018-03-21T07:01:51.754Z,-0.70
2018-03-21T07:04:19.230Z,-0.60
2018-03-21T07:06:46.690Z,-0.50
2018-03-21T07:09:14.157Z,-0.40
2018-03-21T07:11:42.383Z,-0.10
2018-03-21T07:14:21.806Z,-0.10
2018-03-21T07:16:49.267Z,-0.10
2018-03-21T07:19:16.731Z,0.00
2018-03-21T07:21:44.183Z,0.00
2018-03-21T07:24:11.949Z,-0.10
2018-03-21T07:26:39.406Z,0.10
2018-03-21T07:29:06.868Z,0.30
2018-03-21T07:31:34.325Z,0.10
2018-03-21T07:34:01.790Z,0.30
2018-03-21T07:36:29.254Z,0.40
2018-03-21T07:38:56.713Z,0.40
2018-03-21T07:41:24.176Z,0.70
2018-03-21T07:43:51.671Z,0.80
2018-03-21T07:46:19.895Z,0.70
2018-03-21T07:48:47.350Z,0.70
2018-03-21T07:51:15.582Z,0.80
2018-03-21T07:53:43.037Z,0.80
2018-03-21T07:56:10.727Z,0.90
2018-03-21T07:58:38.194Z,1.00
2018-03-21T08:01:05.650Z,1.10
2018-03-21T08:03:33.116Z,1.30
2018-03-21T08:06:00.566Z,1.20
2018-03-21T08:08:28.037Z,0.90
2018-03-21T08:10:55.503Z,0.90
2018-03-21T08:13:22.966Z,0.90
2018-03-21T08:15:50.474Z,1.00
2018-03-21T08:18:17.895Z,1.00
2018-03-21T08:20:45.355Z,1.00
2018-03-21T08:23:12.811Z,1.20
2018-03-21T08:25:40.279Z,1.40
2018-03-21T08:28:09.104Z,1.60
2018-03-21T08:30:36.572Z,1.60
2018-03-21T08:33:04.032Z,1.70
2018-03-21T08:35:31.488Z,1.80
2018-03-21T08:37:58.960Z,1.80
2018-03-21T08:40:26.421Z,1.80
2018-03-21T08:42:53.896Z,1.10
2018-03-21T08:45:23.358Z,0.90
2018-03-21T08:47:50.825Z,1.20
2018-03-21T08:50:18.274Z,1.20
2018-03-21T08:52:45.747Z,1.10
2018-03-21T08:55:13.198Z,1.20
2018-03-21T08:57:40.658Z,1.20
2018-03-21T09:00:08.333Z,1.00
2018-03-21T09:02:35.802Z,1.40
2018-03-21T09:05:03.264Z,1.40
2018-03-21T09:07:30.778Z,1.40
2018-03-21T09:09:59.004Z,1.40
2018-03-21T09:12:26.468Z,1.40
2018-03-21T09:14:54.700Z,1.80
2018-03-21T09:17:22.165Z,1.80
2018-03-21T09:19:49.638Z,2.00
2018-03-21T09:22:17.095Z,1.60
2018-03-21T09:24:44.555Z,1.40
2018-03-21T09:27:12.026Z,1.50
2018-03-21T09:29:40.270Z,1.70
2018-03-21T09:32:07.728Z,1.70
2018-03-21T09:34:35.189Z,1.70
2018-03-21T09:37:02.648Z,1.70
2018-03-21T09:39:30.119Z,1.80
2018-03-21T09:41:57.582Z,1.50
2018-03-21T09:44:25.049Z,1.70
2018-03-21T09:46:53.274Z,1.70
2018-03-21T09:49:20.741Z,1.60
2018-03-21T09:51:48.203Z,1.70
2018-03-21T09:54:15.666Z,1.50
2018-03-21T09:56:43.128Z,1.50
2018-03-21T09:59:10.581Z,1.40
2018-03-21T10:01:38.056Z,1.40
2018-03-21T10:04:05.517Z,1.50
2018-03-21T10:06:32.984Z,1.80
2018-03-21T10:09:01.202Z,2.40
2018-03-21T10:11:28.675Z,2.40
2018-03-21T10:13:56.138Z,2.40
2018-03-21T10:16:24.590Z,2.10
2018-03-21T10:18:52.064Z,2.10
2018-03-21T10:21:19.808Z,2.10
2018-03-21T10:23:47.288Z,1.80
2018-03-21T10:26:14.735Z,1.60
2018-03-21T10:28:42.200Z,1.70
2018-03-21T10:31:09.651Z,2.00
2018-03-21T10:33:37.110Z,2.20
2018-03-21T10:36:04.857Z,2.30
2018-03-21T10:38:32.322Z,2.30
2018-03-21T10:40:59.784Z,2.50
2018-03-21T10:43:27.262Z,2.40
2018-03-21T10:45:54.729Z,2.10
2018-03-21T10:48:22.181Z,2.40
2018-03-21T10:50:49.646Z,2.70
2018-03-21T10:53:17.122Z,2.80
2018-03-21T10:55:45.642Z,3.20
2018-03-21T10:58:13.103Z,3.20
2018-03-21T11:00:40.578Z,3.30
2018-03-21T11:03:08.053Z,3.50
2018-03-21T11:05:35.505Z,3.50
2018-03-21T11:08:02.974Z,3.40
2018-03-21T11:10:30.433Z,3.30
2018-03-21T11:12:57.893Z,3.20
2018-03-21T11:15:25.355Z,3.10
2018-03-21T11:17:53.399Z,3.10
2018-03-21T11:20:21.131Z,3.00
2018-03-21T11:22:48.605Z,3.20
2018-03-21T11:25:16.413Z,3.10
2018-03-21T11:27:43.838Z,3.10
2018-03-21T11:30:11.294Z,2.90
2018-03-21T11:32:38.759Z,2.90
2018-03-21T11:35:06.487Z,3.00
2018-03-21T11:37:33.954Z,3.10
2018-03-21T11:40:01.415Z,3.10
2018-03-21T11:42:29.164Z,2.90
2018-03-21T11:44:56.638Z,2.90
2018-03-21T11:47:24.389Z,2.70
2018-03-21T11:49:51.848Z,2.60
2018-03-21T11:52:19.315Z,2.40
2018-03-21T11:54:46.775Z,2.60
2018-03-21T11:57:14.242Z,2.60
2018-03-21T11:59:41.709Z,3.00
2018-03-21T12:02:09.158Z,3.10
2018-03-21T12:04:36.833Z,2.70
2018-03-21T12:07:04.290Z,2.70
2018-03-21T12:09:31.838Z,2.80
2018-03-21T12:11:59.570Z,3.10
2018-03-21T12:14:27.039Z,3.20
2018-03-21T12:16:54.498Z,3.50
2018-03-21T12:19:21.978Z,3.50
2018-03-21T12:21:49.437Z,3.40
2018-03-21T12:24:16.907Z,3.40
2018-03-21T12:26:44.404Z,3.40
2018-03-21T12:29:11.874Z,3.40
2018-03-21T12:31:39.347Z,3.30
2018-03-21T12:34:06.805Z,3.40
2018-03-21T12:36:34.311Z,3.30
2018-03-21T12:39:02.111Z,3.30
2018-03-21T12:41:29.574Z,3.20
2018-03-21T12:43:57.022Z,2.90
2018-03-21T12:46:24.484Z,3.00
2018-03-21T12:48:51.945Z,3.00
2018-03-21T12:51:19.415Z,2.90
2018-03-21T12:53:46.874Z,2.60
2018-03-21T12:56:14.416Z,2.70
2018-03-21T12:58:41.815Z,2.90
2018-03-21T13:01:09.278Z,3.10
2018-03-21T13:03:36.734Z,3.00
2018-03-21T13:06:04.203Z,2.90
2018-03-21T13:08:32.425Z,3.10
2018-03-21T13:11:00.173Z,3.00
2018-03-21T13:13:27.644Z,3.20
2018-03-21T13:15:55.166Z,3.20
2018-03-21T13:18:22.623Z,3.20
2018-03-21T13:20:50.860Z,3.00
2018-03-21T13:23:18.332Z,3.00
2018-03-21T13:25:46.045Z,3.00
2018-03-21T13:28:13.815Z,3.20
2018-03-21T13:30:41.281Z,3.30
2018-03-21T13:33:09.849Z,3.30
2018-03-21T13:35:37.320Z,3.30
2018-03-21T13:38:04.785Z,3.10
2018-03-21T13:40:32.264Z,2.90
2018-03-21T13:42:59.738Z,2.90
2018-03-21T13:45:28.263Z,3.00
2018-03-21T13:47:55.728Z,3.00
2018-03-21T13:50:23.195Z,3.00
2018-03-21T13:52:50.654Z,3.20
2018-03-21T13:55:18.887Z,3.20
2018-03-21T13:57:47.217Z,3.20
2018-03-21T14:00:14.654Z,3.20
2018-03-21T14:02:42.122Z,3.20
2018-03-21T14:05:09.590Z,3.20
2018-03-21T14:07:37.048Z,3.30
2018-03-21T14:10:04.502Z,3.30
2018-03-21T14:12:31.973Z,3.20
2018-03-21T14:14:59.439Z,3.20
2018-03-21T14:17:26.896Z,3.50
2018-03-21T14:19:54.360Z,3.70
2018-03-21T14:22:21.850Z,3.70
2018-03-21T14:24:50.085Z,4.10
2018-03-21T14:27:17.539Z,4.10
2018-03-21T14:29:45.007Z,4.20
2018-03-21T14:32:13.247Z,4.30
2018-03-21T14:34:40.710Z,4.30
2018-03-21T14:37:08.179Z,4.20
2018-03-21T14:39:36.398Z,3.70
2018-03-21T14:42:03.864Z,3.70
2018-03-21T14:44:31.322Z,3.40
2018-03-21T14:46:58.786Z,3.30
2018-03-21T14:49:26.320Z,3.10
2018-03-21T14:51:53.722Z,3.10
2018-03-21T14:54:21.187Z,2.70
2018-03-21T14:56:48.663Z,2.70
2018-03-21T14:59:16.138Z,2.90
2018-03-21T15:01:44.351Z,2.70
2018-03-21T15:04:11.839Z,2.70
2018-03-21T15:06:39.319Z,2.80
2018-03-21T15:09:07.582Z,2.70
2018-03-21T15:11:35.051Z,2.60
2018-03-21T15:14:02.763Z,2.50
2018-03-21T15:16:30.222Z,2.70
2018-03-21T15:18:57.682Z,2.80
2018-03-21T15:21:25.138Z,2.90
2018-03-21T15:23:52.598Z,2.90
2018-03-21T15:26:20.363Z,2.80
2018-03-21T15:28:47.819Z,3.10
2018-03-21T15:31:15.278Z,3.10
2018-03-21T15:33:42.740Z,3.00
2018-03-21T15:36:10.416Z,2.90
2018-03-21T15:38:37.883Z,3.00
2018-03-21T15:41:05.333Z,3.20
2018-03-21T15:43:32.798Z,3.40
2018-03-21T15:46:00.255Z,3.50
2018-03-21T15:48:27.716Z,3.60
2018-03-21T15:50:55.178Z,3.50
2018-03-21T15:53:22.685Z,3.50
2018-03-21T15:55:50.138Z,3.50
2018-03-21T15:58:17.612Z,3.50
2018-03-21T16:00:45.325Z,3.30
2018-03-21T16:03:13.551Z,3.10
2018-03-21T16:05:41.018Z,3.00
2018-03-21T16:08:08.759Z,3.10
2018-03-21T16:10:36.431Z,3.20
2018-03-21T16:13:04.659Z,3.30
2018-03-21T16:15:32.894Z,3.20
2018-03-21T16:18:00.355Z,3.20
2018-03-21T16:20:27.811Z,3.40
2018-03-21T16:22:55.267Z,3.40
2018-03-21T16:25:23.503Z,3.40
2018-03-21T16:27:50.954Z,3.40
2018-03-21T16:30:18.431Z,3.60
2018-03-21T16:32:45.885Z,3.70
2018-03-21T16:35:13.651Z,3.90
2018-03-21T16:37:41.110Z,3.70
2018-03-21T16:40:08.566Z,3.60
2018-03-21T16:42:36.149Z,3.50
2018-03-21T16:45:03.612Z,3.40
2018-03-21T16:47:31.072Z,3.30
2018-03-21T16:49:58.536Z,3.00
2018-03-21T16:52:25.998Z,2.90
2018-03-21T16:54:53.458Z,2.90
2018-03-21T16:57:20.929Z,2.70
2018-03-21T16:59:49.202Z,2.60
2018-03-21T17:02:17.509Z,2.60
2018-03-21T17:04:44.977Z,2.60
2018-03-21T17:07:12.443Z,2.60
2018-03-21T17:09:40.203Z,2.50
2018-03-21T17:12:07.690Z,2.40
2018-03-21T17:14:35.168Z,2.40
2018-03-21T17:17:03.418Z,2.30
2018-03-21T17:19:30.882Z,2.30
2018-03-21T17:21:58.334Z,2.30
2018-03-21T17:24:25.814Z,2.30
2018-03-21T17:26:54.049Z,2.10
2018-03-21T17:29:21.510Z,2.10
2018-03-21T17:31:48.954Z,2.10
2018-03-21T17:34:16.409Z,2.00
2018-03-21T17:36:43.868Z,2.00
2018-03-21T17:39:11.334Z,1.90
2018-03-21T17:41:38.808Z,1.90
2018-03-21T17:44:06.259Z,1.80
2018-03-21T17:46:33.731Z,1.80
2018-03-21T17:49:01.205Z,1.80
2018-03-21T17:51:28.671Z,1.80
2018-03-21T17:53:56.893Z,1.70
2018-03-21T17:56:24.350Z,1.60
2018-03-21T17:58:51.817Z,1.60
2018-03-21T18:01:20.042Z,1.40
2018-03-21T18:03:48.275Z,1.40
2018-03-21T18:06:15.737Z,1.30
2018-03-21T18:08:43.204Z,1.30
2018-03-21T18:11:10.670Z,1.30
2018-03-21T18:13:38.132Z,1.20
2018-03-21T18:16:05.839Z,1.20
2018-03-21T18:18:33.515Z,1.10
2018-03-21T18:21:01.269Z,1.10
2018-03-21T18:23:28.728Z,1.10
2018-03-21T18:25:56.195Z,1.00
2018-03-21T18:28:23.659Z,1.10
2018-03-21T18:30:51.125Z,1.00
2018-03-21T18:33:18.586Z,1.00
2018-03-21T18:35:46.056Z,0.90
2018-03-21T18:38:13.517Z,0.80
2018-03-21T18:40:40.970Z,0.70
2018-03-21T18:43:08.439Z,0.60
2018-03-21T18:45:36.662Z,0.40
2018-03-21T18:48:04.124Z,0.40
2018-03-21T18:50:31.584Z,0.40
2018-03-21T18:52:59.047Z,0.40
2018-03-21T18:55:26.513Z,0.40
2018-03-21T18:57:54.713Z,0.50
2018-03-21T19:00:22.179Z,0.40
2018-03-21T19:02:50.414Z,0.40
2018-03-21T19:05:17.874Z,0.30
2018-03-21T19:07:45.324Z,0.40
2018-03-21T19:10:13.079Z,0.30
2018-03-21T19:12:40.539Z,0.30
2018-03-21T19:15:08.002Z,0.30
2018-03-21T19:17:35.678Z,0.30
2018-03-21T19:20:03.371Z,0.20
2018-03-21T19:22:31.598Z,0.20
2018-03-21T19:24:59.051Z,0.20
2018-03-21T19:27:26.513Z,0.20
2018-03-21T19:29:53.970Z,0.20
2018-03-21T19:32:21.440Z,0.10
2018-03-21T19:34:48.895Z,0.10
2018-03-21T19:37:16.634Z,0.20
2018-03-21T19:39:44.142Z,0.20
2018-03-21T19:42:11.570Z,0.10
2018-03-21T19:44:39.255Z,0.00
2018-03-21T19:47:06.723Z,0.10
2018-03-21T19:49:34.177Z,0.00
2018-03-21T19:52:01.669Z,0.00
2018-03-21T19:54:29.139Z,0.00
2018-03-21T19:56:56.598Z,0.00
2018-03-21T19:59:24.293Z,-0.10
2018-03-21T20:01:51.754Z,0.00
2018-03-21T20:04:19.229Z,0.00
2018-03-21T20:06:46.690Z,0.00
2018-03-21T20:09:14.925Z,-0.10
2018-03-21T20:11:42.671Z,-0.10
2018-03-21T20:14:10.435Z,-0.20
2018-03-21T20:16:38.134Z,-0.20
2018-03-21T20:19:05.870Z,-0.30
2018-03-21T20:21:33.386Z,-0.30
2018-03-21T20:24:01.614Z,-0.40
2018-03-21T20:26:29.071Z,-0.40
2018-03-21T20:28:56.555Z,-0.40
2018-03-21T20:31:24.025Z,-0.40
2018-03-21T20:33:52.270Z,-0.40
2018-03-21T20:36:20.508Z,-0.40
2018-03-21T20:38:47.988Z,-0.40
2018-03-21T20:41:15.448Z,-0.40
2018-03-21T20:43:42.918Z,-0.50
2018-03-21T20:46:10.652Z,-0.60
2018-03-21T20:48:38.114Z,-0.60
2018-03-21T20:51:05.603Z,-0.60
2018-03-21T20:53:33.058Z,-0.70
2018-03-21T20:56:00.530Z,-0.60
2018-03-21T20:58:28.222Z,-0.60
2018-03-21T21:00:56.735Z,-0.70
2018-03-21T21:03:24.206Z,-0.70
2018-03-21T21:05:51.924Z,-0.70
2018-03-21T21:08:21.174Z,-0.70
2018-03-21T21:10:49.427Z,-0.70
2018-03-21T21:13:16.903Z,-0.70
2018-03-21T21:15:44.377Z,-0.80
2018-03-21T21:18:11.844Z,-0.80
2018-03-21T21:20:39.306Z,-0.80
2018-03-21T21:23:06.767Z,-0.80
2018-03-21T21:25:36.030Z,-0.80
2018-03-21T21:28:04.276Z,-0.90
2018-03-21T21:30:31.775Z,-0.90
2018-03-21T21:32:59.243Z,-0.90
2018-03-21T21:35:26.715Z,-0.90
2018-03-21T21:37:54.960Z,-1.00
2018-03-21T21:40:22.430Z,-0.90
2018-03-21T21:42:50.152Z,-1.00
2018-03-21T21:45:17.654Z,-1.00
2018-03-21T21:47:45.106Z,-1.00
2018-03-21T21:50:12.782Z,-1.00
2018-03-21T21:52:40.253Z,-1.00
2018-03-21T21:55:08.483Z,-1.10
2018-03-21T21:57:35.951Z,-1.10
2018-03-21T22:00:03.423Z,-1.10
2018-03-21T22:02:31.662Z,-1.10
2018-03-21T22:04:59.134Z,-1.10
2018-03-21T22:07:26.595Z,-1.20
2018-03-21T22:09:54.067Z,-1.20
2018-03-21T22:12:23.354Z,-1.20
2018-03-21T22:14:50.826Z,-1.20
2018-03-21T22:17:18.305Z,-1.30
2018-03-21T22:19:46.535Z,-1.30
2018-03-21T22:22:14.277Z,-1.30
2018-03-21T22:24:45.962Z,-1.30
2018-03-21T22:27:13.429Z,-1.30
2018-03-21T22:29:40.905Z,-1.40
2018-03-21T22:32:08.378Z,-1.30
2018-03-21T22:34:35.842Z,-1.40
2018-03-21T22:37:03.315Z,-1.40
2018-03-21T22:39:30.787Z,-1.50
2018-03-21T22:41:58.250Z,-1.50
2018-03-21T22:44:25.718Z,-1.50
2018-03-21T22:46:53.183Z,-1.50
2018-03-21T22:49:20.649Z,-1.50
2018-03-21T22:51:48.115Z,-1.50
2018-03-21T22:54:15.593Z,-1.50
2018-03-21T22:56:43.815Z,-1.60
2018-03-21T22:59:11.279Z,-1.60
2018-03-21T23:01:39.502Z,-1.70
2018-03-21T23:04:07.006Z,-1.60
2018-03-21T23:06:35.614Z,-1.60
2018-03-21T23:09:03.043Z,-1.70
2018-03-21T23:11:30.515Z,-1.70
2018-03-21T23:13:58.215Z,-1.70
2018-03-21T23:16:26.490Z,-1.70
2018-03-21T23:18:53.954Z,-1.70
2018-03-21T23:21:22.186Z,-1.80
2018-03-21T23:23:49.659Z,-1.80
2018-03-21T23:26:17.122Z,-1.80
2018-03-21T23:28:44.594Z,-1.90
2018-03-21T23:31:12.817Z,-1.90
2018-03-21T23:33:40.294Z,-1.90
2018-03-21T23:36:07.766Z,-1.80
2018-03-21T23:38:36.016Z,-1.90
2018-03-21T23:41:03.521Z,-1.90
2018-03-21T23:43:31.755Z,-1.90
2018-03-21T23:45:59.230Z,-1.90
2018-03-21T23:48:26.915Z,-2.00
2018-03-21T23:50:55.155Z,-2.00
2018-03-21T23:53:22.630Z,-2.00
2018-03-21T23:55:50.875Z,-2.00
2018-03-21T23:58:18.343Z,-2.00
